Cherokee — 9HBC7 — position and weather

sailwx.info

Track history (hours):
 
Tides and Currents Weather Stations Pressure Air Temp Water Temp Dewpoint Dewpoint Depression Visibility Wind Speed Wind Dir Waves Ship Positions

Cherokee

Last reported at 2017-Mar-09 21:33 UTC. Time now 2017-Mar-29 01:29 UTC.
Position N 45°08' E 036°29'.
Warning: this ship's position is 19 days out of date.

Length 140 m; draft 3.5 m.

Type: Cargo ship. MMSI: 215059000.

Date/timePositionNaut miles runAvg speedWind from/ knotsBaromVisibWave heightAir tempDewpointWater temp
2017-Mar-09 21:33N 45°08' E 036°29'8 7.7
2017-Mar-09 20:33N 45°16' E 036°28'7 6.8
2017-Mar-09 19:33N 45°20' E 036°36'5 4.8
2017-Mar-09 18:34N 45°22' E 036°42'0 0.1
2017-Mar-09 17:32N 45°22' E 036°42'0 0.0
2017-Mar-09 16:32N 45°22' E 036°42'0 0.0
2017-Mar-09 15:32N 45°22' E 036°42'0 0.0
2017-Mar-09 14:32N 45°22' E 036°42'0 0.0
2017-Mar-09 13:32N 45°22' E 036°42'0 0.0
2017-Mar-09 12:32N 45°22' E 036°42'0 0.0
2017-Mar-09 11:29N 45°22' E 036°42'0 0.0
2017-Mar-09 10:32N 45°22' E 036°42'0 0.0
2017-Mar-09 09:32N 45°22' E 036°42'0 0.0
2017-Mar-09 08:32N 45°22' E 036°42'0 0.0
2017-Mar-09 07:32N 45°22' E 036°42'0 0.0
2017-Mar-09 06:29N 45°22' E 036°42'0 0.0
2017-Mar-09 05:32N 45°22' E 036°42'0 0.0
2017-Mar-09 04:32N 45°22' E 036°42'0 0.0
2017-Mar-09 03:32N 45°22' E 036°42'0 0.0
2017-Mar-09 02:32N 45°22' E 036°42'0 0.0
2017-Mar-09 01:32N 45°22' E 036°42'0 0.0
2017-Mar-09 00:32N 45°22' E 036°42'0 0.0
2017-Mar-08 23:32N 45°22' E 036°42'0 0.0
2017-Mar-08 22:32N 45°22' E 036°42'0 0.0
2017-Mar-08 21:32N 45°22' E 036°42'0 0.0
2017-Mar-08 20:32N 45°22' E 036°42'0 0.0
2017-Mar-08 19:32N 45°22' E 036°42'0 0.0
2017-Mar-08 18:32N 45°22' E 036°42'0 0.0
2017-Mar-08 17:32N 45°22' E 036°42'0 0.0
2017-Mar-08 16:32N 45°22' E 036°42'0 0.0
2017-Mar-08 15:32N 45°22' E 036°42'0 0.0
2017-Mar-08 14:32N 45°22' E 036°42'0 0.0
2017-Mar-08 13:32N 45°22' E 036°42'0 0.0
2017-Mar-08 12:32N 45°22' E 036°42'0 0.0
2017-Mar-08 11:32N 45°22' E 036°42'0 0.0
2017-Mar-08 10:32N 45°22' E 036°42'0 0.0
2017-Mar-08 09:32N 45°22' E 036°42'0 0.0
2017-Mar-08 08:32N 45°22' E 036°42'0 0.0
2017-Mar-08 07:32N 45°22' E 036°42'0 0.0
2017-Mar-08 06:32N 45°22' E 036°42'0 0.0
2017-Mar-08 05:32N 45°22' E 036°42'0 0.0
2017-Mar-08 04:32N 45°22' E 036°42'0 0.0
2017-Mar-08 03:32N 45°22' E 036°42'0 0.0
2017-Mar-08 02:32N 45°22' E 036°42'0 0.0
2017-Mar-08 01:32N 45°22' E 036°42'0 0.0
2017-Mar-08 00:32N 45°22' E 036°42'0 0.0
2017-Mar-07 23:32N 45°22' E 036°42'0 0.0
2017-Mar-07 22:32N 45°22' E 036°42'0 0.0
2017-Mar-07 21:32N 45°22' E 036°42'0 0.0
2017-Mar-07 20:32N 45°22' E 036°42'0 0.0
2017-Mar-07 19:32N 45°22' E 036°42'0 0.0
2017-Mar-07 18:32N 45°22' E 036°42'0 0.0
2017-Mar-07 17:32N 45°22' E 036°42'0 0.0
2017-Mar-07 16:32N 45°22' E 036°42'0 0.0
2017-Mar-07 15:32N 45°22' E 036°42'0 0.0
2017-Mar-07 14:32N 45°22' E 036°42'0 0.0
2017-Mar-07 13:29N 45°22' E 036°42'0 0.1
2017-Mar-07 12:32N 45°22' E 036°42'0 0.0
2017-Mar-07 11:32N 45°22' E 036°42'0 0.0
2017-Mar-07 10:32N 45°22' E 036°42'0 0.0
2017-Mar-07 09:32N 45°22' E 036°42'0 0.0
2017-Mar-07 08:32N 45°22' E 036°42'0 0.1
2017-Mar-07 07:32N 45°23' E 036°42'0 0.0
2017-Mar-07 06:32N 45°23' E 036°42'0 0.0
2017-Mar-07 05:32N 45°23' E 036°42'0 0.0
2017-Mar-07 04:32N 45°22' E 036°42'0 0.0
2017-Mar-07 03:32N 45°23' E 036°42'0 0.0
2017-Mar-07 02:32N 45°23' E 036°42'0 0.0
2017-Mar-07 01:29N 45°22' E 036°42'0 0.0
2017-Mar-07 00:32N 45°22' E 036°42'2 2.3
2017-Mar-06 23:33N 45°21' E 036°40'0 0.2
2017-Mar-06 22:32N 45°21' E 036°40'0 0.0
2017-Mar-06 21:32N 45°21' E 036°40'0 0.0
2017-Mar-06 20:32N 45°21' E 036°40'0 0.0
2017-Mar-06 19:32N 45°21' E 036°40'0 0.0
2017-Mar-06 18:32N 45°21' E 036°40'0 0.0
2017-Mar-06 17:32N 45°21' E 036°40'0 0.0
2017-Mar-06 16:32N 45°21' E 036°40'0 0.0
2017-Mar-06 15:32N 45°21' E 036°40'0 0.0
2017-Mar-06 14:32N 45°21' E 036°40'0 0.0
2017-Mar-06 13:32N 45°21' E 036°40'0 0.0
2017-Mar-06 12:29N 45°21' E 036°40'0 0.0
2017-Mar-06 11:32N 45°21' E 036°40'0 0.0
2017-Mar-06 10:29N 45°21' E 036°40'0 0.0
2017-Mar-06 09:32N 45°21' E 036°40'0 0.0
2017-Mar-06 08:32N 45°21' E 036°40'0 0.0
2017-Mar-06 07:32N 45°21' E 036°40'0 0.0
2017-Mar-06 06:32N 45°21' E 036°40'0 0.0
2017-Mar-06 05:32N 45°21' E 036°40'0 0.0
2017-Mar-06 04:32N 45°21' E 036°40'0 0.0
2017-Mar-06 03:32N 45°21' E 036°40'0 0.0
2017-Mar-06 02:32N 45°21' E 036°40'0 0.0
2017-Mar-06 01:32N 45°21' E 036°40'0 0.0
2017-Mar-06 00:32N 45°21' E 036°40'0 0.0
2017-Mar-05 23:32N 45°21' E 036°40'0 0.0
2017-Mar-05 22:32N 45°21' E 036°40'0 0.0
2017-Mar-05 21:32N 45°21' E 036°40'0 0.0
2017-Mar-05 20:32N 45°21' E 036°40'0 0.0
2017-Mar-05 19:32N 45°21' E 036°40'0 0.0
2017-Mar-05 18:32N 45°21' E 036°40'0 0.0
2017-Mar-05 17:32N 45°21' E 036°40'0 0.0
2017-Mar-05 16:32N 45°21' E 036°40'0 0.0
2017-Mar-05 15:32N 45°21' E 036°40'0 0.0
2017-Mar-05 14:32N 45°21' E 036°40'0 0.0
2017-Mar-05 13:32N 45°21' E 036°40'0 0.0
2017-Mar-05 12:32N 45°21' E 036°40'0 0.0
2017-Mar-05 11:32N 45°21' E 036°40'0 0.0
2017-Mar-05 10:32N 45°21' E 036°40'0 0.0
2017-Mar-05 09:32N 45°21' E 036°40'0 0.0
2017-Mar-05 08:32N 45°21' E 036°40'0 0.0
2017-Mar-05 07:32N 45°21' E 036°40'0 0.0
2017-Mar-05 06:29N 45°21' E 036°40'0 0.0
2017-Mar-05 05:32N 45°21' E 036°40'0 0.0
2017-Mar-05 04:32N 45°21' E 036°40'0 0.0
2017-Mar-05 03:32N 45°21' E 036°40'0 0.0
2017-Mar-05 02:32N 45°21' E 036°40'0 0.0
2017-Mar-05 01:32N 45°21' E 036°40'0 0.0
2017-Mar-05 00:32N 45°21' E 036°40'0 0.0
2017-Mar-04 23:32N 45°21' E 036°40'0 0.0
2017-Mar-04 22:32N 45°21' E 036°40'0 0.0
2017-Mar-04 21:32N 45°21' E 036°40'0 0.0
2017-Mar-04 20:32N 45°21' E 036°40'0 0.0
2017-Mar-04 19:32N 45°21' E 036°40'0 0.0
2017-Mar-04 18:32N 45°21' E 036°40'0 0.0
2017-Mar-04 17:32N 45°21' E 036°40'0 0.0
2017-Mar-04 16:32N 45°21' E 036°40'0 0.0
2017-Mar-04 15:32N 45°21' E 036°40'0 0.0
2017-Mar-04 14:32N 45°21' E 036°40'0 0.0
2017-Mar-04 13:32N 45°21' E 036°40'0 0.0
2017-Mar-04 12:32N 45°21' E 036°40'0 0.0
2017-Mar-04 11:32N 45°21' E 036°40'0 0.0
2017-Mar-04 10:32N 45°21' E 036°40'0 0.0
2017-Mar-04 09:32N 45°21' E 036°40'0 0.0
2017-Mar-04 08:32N 45°21' E 036°40'0 0.0
2017-Mar-04 07:29N 45°21' E 036°40'0 0.0
2017-Mar-04 06:32N 45°21' E 036°40'0 0.0
2017-Mar-04 05:32N 45°21' E 036°40'0 0.0
2017-Mar-04 04:32N 45°21' E 036°40'0 0.0
2017-Mar-04 03:32N 45°21' E 036°40'0 0.0
2017-Mar-04 02:32N 45°21' E 036°40'0 0.0
2017-Mar-04 01:32N 45°21' E 036°40'0 0.0
2017-Mar-04 00:32N 45°21' E 036°40'0 0.0
2017-Mar-03 23:32N 45°21' E 036°40'0 0.0
2017-Mar-03 22:29N 45°21' E 036°40'0 0.0
2017-Mar-03 21:32N 45°21' E 036°40'0 0.0
2017-Mar-03 20:32N 45°21' E 036°40'0 0.0
2017-Mar-03 19:32N 45°21' E 036°40'0 0.0
2017-Mar-03 18:32N 45°21' E 036°40'0 0.0
2017-Mar-03 17:32N 45°21' E 036°40'0 0.0
2017-Mar-03 16:32N 45°21' E 036°40'0 0.0
2017-Mar-03 15:32N 45°21' E 036°40'0 0.0
2017-Mar-03 14:32N 45°21' E 036°40'0 0.0
2017-Mar-03 13:32N 45°21' E 036°40'0 0.0
2017-Mar-03 12:29N 45°21' E 036°40'0 0.0
2017-Mar-03 11:32N 45°21' E 036°40'0 0.0
2017-Mar-03 10:32N 45°21' E 036°40'0 0.0
2017-Mar-03 09:32N 45°21' E 036°40'0 0.0
2017-Mar-03 08:32N 45°21' E 036°40'0 0.0
2017-Mar-03 07:32N 45°21' E 036°40'0 0.0
2017-Mar-03 06:32N 45°21' E 036°40'0 0.0
2017-Mar-03 05:32N 45°21' E 036°40'0 0.0
2017-Mar-03 04:32N 45°21' E 036°40'0 0.0
2017-Mar-03 03:32N 45°21' E 036°40'0 0.0
2017-Mar-03 02:32N 45°21' E 036°40'0 0.0
2017-Mar-03 01:32N 45°21' E 036°40'0 0.0
2017-Mar-03 00:32N 45°21' E 036°40'0 0.0
2017-Mar-02 23:32N 45°21' E 036°40'0 0.0
2017-Mar-02 22:32N 45°21' E 036°40'0 0.0
2017-Mar-02 21:32N 45°21' E 036°40'0 0.0
2017-Mar-02 20:32N 45°21' E 036°40'0 0.0
2017-Mar-02 19:32N 45°21' E 036°40'0 0.0
2017-Mar-02 18:32N 45°21' E 036°40'0 0.0
2017-Mar-02 17:32N 45°21' E 036°40'0 0.0
2017-Mar-02 16:32N 45°21' E 036°40'0 0.0
2017-Mar-02 15:32N 45°21' E 036°40'0 0.0
2017-Mar-02 14:32N 45°21' E 036°40'0 0.0
2017-Mar-02 13:32N 45°21' E 036°40'0 0.0
2017-Mar-02 12:29N 45°21' E 036°40'0 0.0
2017-Mar-02 11:32N 45°21' E 036°40'0 0.0
2017-Mar-02 10:32N 45°21' E 036°40'0 0.0
2017-Mar-02 09:32N 45°21' E 036°40'0 0.0
2017-Mar-02 08:32N 45°21' E 036°40'0 0.0
2017-Mar-02 07:32N 45°21' E 036°40'0 0.0
2017-Mar-02 06:32N 45°21' E 036°40'0 0.0
2017-Mar-02 05:32N 45°21' E 036°40'0 0.0
2017-Mar-02 04:32N 45°21' E 036°40'0 0.0
2017-Mar-02 03:32N 45°21' E 036°40'0 0.0
2017-Mar-02 02:32N 45°21' E 036°40'0 0.0
2017-Mar-02 01:32N 45°21' E 036°40'0 0.0
2017-Mar-02 00:32N 45°21' E 036°40'0 0.0
2017-Mar-01 23:32N 45°21' E 036°40'0 0.0
2017-Mar-01 22:32N 45°21' E 036°40'0 0.0
2017-Mar-01 21:32N 45°21' E 036°40'0 0.0
2017-Mar-01 20:32N 45°21' E 036°40'0 0.0
2017-Mar-01 19:34N 45°21' E 036°40'2 1.6
2017-Mar-01 18:34N 45°22' E 036°41'6 5.6
2017-Mar-01 17:34N 45°19' E 036°34'6 6.2
2017-Mar-01 16:34N 45°14' E 036°29'8 8.1
2017-Mar-01 15:34N 45°06' E 036°30'  
Track history (hours):
 
Tides and Currents Weather Stations Pressure Air Temp Water Temp Dewpoint Dewpoint Depression Visibility Wind Speed Wind Dir Waves Ship Positions

Cherokee

Last reported at 2017-Mar-09 21:33 UTC. Time now 2017-Mar-29 01:29 UTC.
Position N 45°08' E 036°29'.
Warning: this ship's position is 19 days out of date.

Length 140 m; draft 3.5 m.

Type: Cargo ship. MMSI: 215059000.

Date/timePositionNaut miles runAvg speedWind from/ knotsBaromVisibWave heightAir tempDewpointWater temp
2017-Mar-09 21:33N 45°08' E 036°29'8 7.7
2017-Mar-09 20:33N 45°16' E 036°28'7 6.8
2017-Mar-09 19:33N 45°20' E 036°36'5 4.8
2017-Mar-09 18:34N 45°22' E 036°42'0 0.1
2017-Mar-09 17:32N 45°22' E 036°42'0 0.0
2017-Mar-09 16:32N 45°22' E 036°42'0 0.0
2017-Mar-09 15:32N 45°22' E 036°42'0 0.0
2017-Mar-09 14:32N 45°22' E 036°42'0 0.0
2017-Mar-09 13:32N 45°22' E 036°42'0 0.0
2017-Mar-09 12:32N 45°22' E 036°42'0 0.0
2017-Mar-09 11:29N 45°22' E 036°42'0 0.0
2017-Mar-09 10:32N 45°22' E 036°42'0 0.0
2017-Mar-09 09:32N 45°22' E 036°42'0 0.0
2017-Mar-09 08:32N 45°22' E 036°42'0 0.0
2017-Mar-09 07:32N 45°22' E 036°42'0 0.0
2017-Mar-09 06:29N 45°22' E 036°42'0 0.0
2017-Mar-09 05:32N 45°22' E 036°42'0 0.0
2017-Mar-09 04:32N 45°22' E 036°42'0 0.0
2017-Mar-09 03:32N 45°22' E 036°42'0 0.0
2017-Mar-09 02:32N 45°22' E 036°42'0 0.0
2017-Mar-09 01:32N 45°22' E 036°42'0 0.0
2017-Mar-09 00:32N 45°22' E 036°42'0 0.0
2017-Mar-08 23:32N 45°22' E 036°42'0 0.0
2017-Mar-08 22:32N 45°22' E 036°42'0 0.0
2017-Mar-08 21:32N 45°22' E 036°42'0 0.0
2017-Mar-08 20:32N 45°22' E 036°42'0 0.0
2017-Mar-08 19:32N 45°22' E 036°42'0 0.0
2017-Mar-08 18:32N 45°22' E 036°42'0 0.0
2017-Mar-08 17:32N 45°22' E 036°42'0 0.0
2017-Mar-08 16:32N 45°22' E 036°42'0 0.0
2017-Mar-08 15:32N 45°22' E 036°42'0 0.0
2017-Mar-08 14:32N 45°22' E 036°42'0 0.0
2017-Mar-08 13:32N 45°22' E 036°42'0 0.0
2017-Mar-08 12:32N 45°22' E 036°42'0 0.0
2017-Mar-08 11:32N 45°22' E 036°42'0 0.0
2017-Mar-08 10:32N 45°22' E 036°42'0 0.0
2017-Mar-08 09:32N 45°22' E 036°42'0 0.0
2017-Mar-08 08:32N 45°22' E 036°42'0 0.0
2017-Mar-08 07:32N 45°22' E 036°42'0 0.0
2017-Mar-08 06:32N 45°22' E 036°42'0 0.0
2017-Mar-08 05:32N 45°22' E 036°42'0 0.0
2017-Mar-08 04:32N 45°22' E 036°42'0 0.0
2017-Mar-08 03:32N 45°22' E 036°42'0 0.0
2017-Mar-08 02:32N 45°22' E 036°42'0 0.0
2017-Mar-08 01:32N 45°22' E 036°42'0 0.0
2017-Mar-08 00:32N 45°22' E 036°42'0 0.0
2017-Mar-07 23:32N 45°22' E 036°42'0 0.0
2017-Mar-07 22:32N 45°22' E 036°42'0 0.0
2017-Mar-07 21:32N 45°22' E 036°42'0 0.0
2017-Mar-07 20:32N 45°22' E 036°42'0 0.0
2017-Mar-07 19:32N 45°22' E 036°42'0 0.0
2017-Mar-07 18:32N 45°22' E 036°42'0 0.0
2017-Mar-07 17:32N 45°22' E 036°42'0 0.0
2017-Mar-07 16:32N 45°22' E 036°42'0 0.0
2017-Mar-07 15:32N 45°22' E 036°42'0 0.0
2017-Mar-07 14:32N 45°22' E 036°42'0 0.0
2017-Mar-07 13:29N 45°22' E 036°42'0 0.1
2017-Mar-07 12:32N 45°22' E 036°42'0 0.0
2017-Mar-07 11:32N 45°22' E 036°42'0 0.0
2017-Mar-07 10:32N 45°22' E 036°42'0 0.0
2017-Mar-07 09:32N 45°22' E 036°42'0 0.0
2017-Mar-07 08:32N 45°22' E 036°42'0 0.1
2017-Mar-07 07:32N 45°23' E 036°42'0 0.0
2017-Mar-07 06:32N 45°23' E 036°42'0 0.0
2017-Mar-07 05:32N 45°23' E 036°42'0 0.0
2017-Mar-07 04:32N 45°22' E 036°42'0 0.0
2017-Mar-07 03:32N 45°23' E 036°42'0 0.0
2017-Mar-07 02:32N 45°23' E 036°42'0 0.0
2017-Mar-07 01:29N 45°22' E 036°42'0 0.0
2017-Mar-07 00:32N 45°22' E 036°42'2 2.3
2017-Mar-06 23:33N 45°21' E 036°40'0 0.2
2017-Mar-06 22:32N 45°21' E 036°40'0 0.0
2017-Mar-06 21:32N 45°21' E 036°40'0 0.0
2017-Mar-06 20:32N 45°21' E 036°40'0 0.0
2017-Mar-06 19:32N 45°21' E 036°40'0 0.0
2017-Mar-06 18:32N 45°21' E 036°40'0 0.0
2017-Mar-06 17:32N 45°21' E 036°40'0 0.0
2017-Mar-06 16:32N 45°21' E 036°40'0 0.0
2017-Mar-06 15:32N 45°21' E 036°40'0 0.0
2017-Mar-06 14:32N 45°21' E 036°40'0 0.0
2017-Mar-06 13:32N 45°21' E 036°40'0 0.0
2017-Mar-06 12:29N 45°21' E 036°40'0 0.0
2017-Mar-06 11:32N 45°21' E 036°40'0 0.0
2017-Mar-06 10:29N 45°21' E 036°40'0 0.0
2017-Mar-06 09:32N 45°21' E 036°40'0 0.0
2017-Mar-06 08:32N 45°21' E 036°40'0 0.0
2017-Mar-06 07:32N 45°21' E 036°40'0 0.0
2017-Mar-06 06:32N 45°21' E 036°40'0 0.0
2017-Mar-06 05:32N 45°21' E 036°40'0 0.0
2017-Mar-06 04:32N 45°21' E 036°40'0 0.0
2017-Mar-06 03:32N 45°21' E 036°40'0 0.0
2017-Mar-06 02:32N 45°21' E 036°40'0 0.0
2017-Mar-06 01:32N 45°21' E 036°40'0 0.0
2017-Mar-06 00:32N 45°21' E 036°40'0 0.0
2017-Mar-05 23:32N 45°21' E 036°40'0 0.0
2017-Mar-05 22:32N 45°21' E 036°40'0 0.0
2017-Mar-05 21:32N 45°21' E 036°40'0 0.0
2017-Mar-05 20:32N 45°21' E 036°40'0 0.0
2017-Mar-05 19:32N 45°21' E 036°40'0 0.0
2017-Mar-05 18:32N 45°21' E 036°40'0 0.0
2017-Mar-05 17:32N 45°21' E 036°40'0 0.0
2017-Mar-05 16:32N 45°21' E 036°40'0 0.0
2017-Mar-05 15:32N 45°21' E 036°40'0 0.0
2017-Mar-05 14:32N 45°21' E 036°40'0 0.0
2017-Mar-05 13:32N 45°21' E 036°40'0 0.0
2017-Mar-05 12:32N 45°21' E 036°40'0 0.0
2017-Mar-05 11:32N 45°21' E 036°40'0 0.0
2017-Mar-05 10:32N 45°21' E 036°40'0 0.0
2017-Mar-05 09:32N 45°21' E 036°40'0 0.0
2017-Mar-05 08:32N 45°21' E 036°40'0 0.0
2017-Mar-05 07:32N 45°21' E 036°40'0 0.0
2017-Mar-05 06:29N 45°21' E 036°40'0 0.0
2017-Mar-05 05:32N 45°21' E 036°40'0 0.0
2017-Mar-05 04:32N 45°21' E 036°40'0 0.0
2017-Mar-05 03:32N 45°21' E 036°40'0 0.0
2017-Mar-05 02:32N 45°21' E 036°40'0 0.0
2017-Mar-05 01:32N 45°21' E 036°40'0 0.0
2017-Mar-05 00:32N 45°21' E 036°40'0 0.0
2017-Mar-04 23:32N 45°21' E 036°40'0 0.0
2017-Mar-04 22:32N 45°21' E 036°40'0 0.0
2017-Mar-04 21:32N 45°21' E 036°40'0 0.0
2017-Mar-04 20:32N 45°21' E 036°40'0 0.0
2017-Mar-04 19:32N 45°21' E 036°40'0 0.0
2017-Mar-04 18:32N 45°21' E 036°40'0 0.0
2017-Mar-04 17:32N 45°21' E 036°40'0 0.0
2017-Mar-04 16:32N 45°21' E 036°40'0 0.0
2017-Mar-04 15:32N 45°21' E 036°40'0 0.0
2017-Mar-04 14:32N 45°21' E 036°40'0 0.0
2017-Mar-04 13:32N 45°21' E 036°40'0 0.0
2017-Mar-04 12:32N 45°21' E 036°40'0 0.0
2017-Mar-04 11:32N 45°21' E 036°40'0 0.0
2017-Mar-04 10:32N 45°21' E 036°40'0 0.0
2017-Mar-04 09:32N 45°21' E 036°40'0 0.0
2017-Mar-04 08:32N 45°21' E 036°40'0 0.0
2017-Mar-04 07:29N 45°21' E 036°40'0 0.0
2017-Mar-04 06:32N 45°21' E 036°40'0 0.0
2017-Mar-04 05:32N 45°21' E 036°40'0 0.0
2017-Mar-04 04:32N 45°21' E 036°40'0 0.0
2017-Mar-04 03:32N 45°21' E 036°40'0 0.0
2017-Mar-04 02:32N 45°21' E 036°40'0 0.0
2017-Mar-04 01:32N 45°21' E 036°40'0 0.0
2017-Mar-04 00:32N 45°21' E 036°40'0 0.0
2017-Mar-03 23:32N 45°21' E 036°40'0 0.0
2017-Mar-03 22:29N 45°21' E 036°40'0 0.0
2017-Mar-03 21:32N 45°21' E 036°40'0 0.0
2017-Mar-03 20:32N 45°21' E 036°40'0 0.0
2017-Mar-03 19:32N 45°21' E 036°40'0 0.0
2017-Mar-03 18:32N 45°21' E 036°40'0 0.0
2017-Mar-03 17:32N 45°21' E 036°40'0 0.0
2017-Mar-03 16:32N 45°21' E 036°40'0 0.0
2017-Mar-03 15:32N 45°21' E 036°40'0 0.0
2017-Mar-03 14:32N 45°21' E 036°40'0 0.0
2017-Mar-03 13:32N 45°21' E 036°40'0 0.0
2017-Mar-03 12:29N 45°21' E 036°40'0 0.0
2017-Mar-03 11:32N 45°21' E 036°40'0 0.0
2017-Mar-03 10:32N 45°21' E 036°40'0 0.0
2017-Mar-03 09:32N 45°21' E 036°40'0 0.0
2017-Mar-03 08:32N 45°21' E 036°40'0 0.0
2017-Mar-03 07:32N 45°21' E 036°40'0 0.0
2017-Mar-03 06:32N 45°21' E 036°40'0 0.0
2017-Mar-03 05:32N 45°21' E 036°40'0 0.0
2017-Mar-03 04:32N 45°21' E 036°40'0 0.0
2017-Mar-03 03:32N 45°21' E 036°40'0 0.0
2017-Mar-03 02:32N 45°21' E 036°40'0 0.0
2017-Mar-03 01:32N 45°21' E 036°40'0 0.0
2017-Mar-03 00:32N 45°21' E 036°40'0 0.0
2017-Mar-02 23:32N 45°21' E 036°40'0 0.0
2017-Mar-02 22:32N 45°21' E 036°40'0 0.0
2017-Mar-02 21:32N 45°21' E 036°40'0 0.0
2017-Mar-02 20:32N 45°21' E 036°40'0 0.0
2017-Mar-02 19:32N 45°21' E 036°40'0 0.0
2017-Mar-02 18:32N 45°21' E 036°40'0 0.0
2017-Mar-02 17:32N 45°21' E 036°40'0 0.0
2017-Mar-02 16:32N 45°21' E 036°40'0 0.0
2017-Mar-02 15:32N 45°21' E 036°40'0 0.0
2017-Mar-02 14:32N 45°21' E 036°40'0 0.0
2017-Mar-02 13:32N 45°21' E 036°40'0 0.0
2017-Mar-02 12:29N 45°21' E 036°40'0 0.0
2017-Mar-02 11:32N 45°21' E 036°40'0 0.0
2017-Mar-02 10:32N 45°21' E 036°40'0 0.0
2017-Mar-02 09:32N 45°21' E 036°40'0 0.0
2017-Mar-02 08:32N 45°21' E 036°40'0 0.0
2017-Mar-02 07:32N 45°21' E 036°40'0 0.0
2017-Mar-02 06:32N 45°21' E 036°40'0 0.0
2017-Mar-02 05:32N 45°21' E 036°40'0 0.0
2017-Mar-02 04:32N 45°21' E 036°40'0 0.0
2017-Mar-02 03:32N 45°21' E 036°40'0 0.0
2017-Mar-02 02:32N 45°21' E 036°40'0 0.0
2017-Mar-02 01:32N 45°21' E 036°40'0 0.0
2017-Mar-02 00:32N 45°21' E 036°40'0 0.0
2017-Mar-01 23:32N 45°21' E 036°40'0 0.0
2017-Mar-01 22:32N 45°21' E 036°40'0 0.0
2017-Mar-01 21:32N 45°21' E 036°40'0 0.0
2017-Mar-01 20:32N 45°21' E 036°40'0 0.0
2017-Mar-01 19:34N 45°21' E 036°40'2 1.6
2017-Mar-01 18:34N 45°22' E 036°41'6 5.6
2017-Mar-01 17:34N 45°19' E 036°34'6 6.2
2017-Mar-01 16:34N 45°14' E 036°29'8 8.1
2017-Mar-01 15:34N 45°06' E 036°30'  

Dump ship's entire track history